sensor_id;sensor_type;location;lat;lon;timestamp;temperature;humidity
25360;DHT22;13311;51.386;0.016;2022-12-22T00:01:21;9.50;99.90
25360;DHT22;13311;51.386;0.016;2022-12-22T00:06:40;9.50;99.90
25360;DHT22;13311;51.386;0.016;2022-12-22T00:12:00;9.50;99.90
25360;DHT22;13311;51.386;0.016;2022-12-22T00:17:26;9.60;99.90
25360;DHT22;13311;51.386;0.016;2022-12-22T00:22:46;9.60;99.90
25360;DHT22;13311;51.386;0.016;2022-12-22T00:28:13;9.60;99.90
25360;DHT22;13311;51.386;0.016;2022-12-22T00:33:32;9.60;99.90
25360;DHT22;13311;51.386;0.016;2022-12-22T00:38:52;9.60;99.90
25360;DHT22;13311;51.386;0.016;2022-12-22T00:44:11;9.60;99.90
25360;DHT22;13311;51.386;0.016;2022-12-22T00:49:33;9.60;99.90
25360;DHT22;13311;51.386;0.016;2022-12-22T00:54:53;9.60;99.90
25360;DHT22;13311;51.386;0.016;2022-12-22T01:00:17;9.60;99.90
25360;DHT22;13311;51.386;0.016;2022-12-22T01:05:37;9.60;99.90
25360;DHT22;13311;51.386;0.016;2022-12-22T01:10:56;9.60;99.90
25360;DHT22;13311;51.386;0.016;2022-12-22T01:16:15;9.60;99.90
25360;DHT22;13311;51.386;0.016;2022-12-22T01:21:35;9.60;99.90
25360;DHT22;13311;51.386;0.016;2022-12-22T01:26:54;9.60;99.90
25360;DHT22;13311;51.386;0.016;2022-12-22T01:32:14;9.60;99.90
25360;DHT22;13311;51.386;0.016;2022-12-22T01:37:33;9.60;99.90
25360;DHT22;13311;51.386;0.016;2022-12-22T01:42:52;9.60;99.90
25360;DHT22;13311;51.386;0.016;2022-12-22T01:48:13;9.60;99.90
25360;DHT22;13311;51.386;0.016;2022-12-22T01:53:34;9.60;99.90
25360;DHT22;13311;51.386;0.016;2022-12-22T01:58:58;9.60;99.90
25360;DHT22;13311;51.386;0.016;2022-12-22T02:04:21;9.50;99.90
25360;DHT22;13311;51.386;0.016;2022-12-22T02:09:59;9.40;99.90
25360;DHT22;13311;51.386;0.016;2022-12-22T02:21:13;9.30;99.90
25360;DHT22;13311;51.386;0.016;2022-12-22T02:26:41;9.30;99.90
25360;DHT22;13311;51.386;0.016;2022-12-22T02:32:03;9.30;99.90
25360;DHT22;13311;51.386;0.016;2022-12-22T02:37:38;9.30;99.90
25360;DHT22;13311;51.386;0.016;2022-12-22T02:43:33;9.40;99.90
25360;DHT22;13311;51.386;0.016;2022-12-22T02:49:22;9.30;99.90
25360;DHT22;13311;51.386;0.016;2022-12-22T02:54:44;9.40;99.90
25360;DHT22;13311;51.386;0.016;2022-12-22T03:00:04;9.40;99.90
25360;DHT22;13311;51.386;0.016;2022-12-22T03:05:24;9.30;99.90
25360;DHT22;13311;51.386;0.016;2022-12-22T03:10:43;9.30;99.90
25360;DHT22;13311;51.386;0.016;2022-12-22T03:16:03;9.30;99.90
25360;DHT22;13311;51.386;0.016;2022-12-22T03:21:22;9.30;99.90
25360;DHT22;13311;51.386;0.016;2022-12-22T03:26:41;9.30;99.90
25360;DHT22;13311;51.386;0.016;2022-12-22T03:31:42;9.30;99.90
25360;DHT22;13311;51.386;0.016;2022-12-22T03:36:43;9.20;99.90
25360;DHT22;13311;51.386;0.016;2022-12-22T03:41:44;9.20;99.90
25360;DHT22;13311;51.386;0.016;2022-12-22T03:47:03;9.30;99.90
25360;DHT22;13311;51.386;0.016;2022-12-22T03:52:04;9.30;99.90
25360;DHT22;13311;51.386;0.016;2022-12-22T03:57:05;9.40;99.90
25360;DHT22;13311;51.386;0.016;2022-12-22T04:02:06;9.50;99.90
25360;DHT22;13311;51.386;0.016;2022-12-22T04:07:06;9.80;99.90
25360;DHT22;13311;51.386;0.016;2022-12-22T04:12:07;10.00;99.90
25360;DHT22;13311;51.386;0.016;2022-12-22T04:17:27;10.20;99.90
25360;DHT22;13311;51.386;0.016;2022-12-22T04:22:27;10.30;99.90
25360;DHT22;13311;51.386;0.016;2022-12-22T04:27:28;10.40;99.90
25360;DHT22;13311;51.386;0.016;2022-12-22T04:32:28;10.50;99.90
25360;DHT22;13311;51.386;0.016;2022-12-22T04:37:29;10.60;99.90
25360;DHT22;13311;51.386;0.016;2022-12-22T04:42:30;10.50;99.90
25360;DHT22;13311;51.386;0.016;2022-12-22T04:47:31;10.40;99.90
25360;DHT22;13311;51.386;0.016;2022-12-22T04:52:31;10.40;99.90
25360;DHT22;13311;51.386;0.016;2022-12-22T04:57:32;10.30;99.90
25360;DHT22;13311;51.386;0.016;2022-12-22T05:02:33;10.30;99.90
25360;DHT22;13311;51.386;0.016;2022-12-22T05:07:33;10.30;99.90
25360;DHT22;13311;51.386;0.016;2022-12-22T05:12:34;10.30;99.90
25360;DHT22;13311;51.386;0.016;2022-12-22T05:17:54;10.40;99.90
25360;DHT22;13311;51.386;0.016;2022-12-22T05:22:57;10.40;99.90
25360;DHT22;13311;51.386;0.016;2022-12-22T05:27:58;10.30;99.90
25360;DHT22;13311;51.386;0.016;2022-12-22T05:32:58;10.30;99.90
25360;DHT22;13311;51.386;0.016;2022-12-22T05:37:59;10.20;99.90
25360;DHT22;13311;51.386;0.016;2022-12-22T05:43:00;10.20;99.90
25360;DHT22;13311;51.386;0.016;2022-12-22T05:48:00;10.10;99.90
25360;DHT22;13311;51.386;0.016;2022-12-22T05:53:01;10.00;99.90
25360;DHT22;13311;51.386;0.016;2022-12-22T05:58:05;10.00;99.90
25360;DHT22;13311;51.386;0.016;2022-12-22T06:03:06;9.90;99.90
25360;DHT22;13311;51.386;0.016;2022-12-22T06:08:07;9.80;99.90
25360;DHT22;13311;51.386;0.016;2022-12-22T06:13:08;9.70;99.90
25360;DHT22;13311;51.386;0.016;2022-12-22T06:18:08;9.60;99.90
25360;DHT22;13311;51.386;0.016;2022-12-22T06:23:09;9.50;99.90
25360;DHT22;13311;51.386;0.016;2022-12-22T06:28:10;9.40;99.90
25360;DHT22;13311;51.386;0.016;2022-12-22T06:33:10;9.30;99.90
25360;DHT22;13311;51.386;0.016;2022-12-22T06:38:11;9.20;99.90
25360;DHT22;13311;51.386;0.016;2022-12-22T06:43:12;9.00;99.90
25360;DHT22;13311;51.386;0.016;2022-12-22T06:48:13;8.90;99.90
25360;DHT22;13311;51.386;0.016;2022-12-22T06:53:14;8.80;99.90
25360;DHT22;13311;51.386;0.016;2022-12-22T06:58:14;8.70;99.90
25360;DHT22;13311;51.386;0.016;2022-12-22T07:03:15;8.70;99.90
25360;DHT22;13311;51.386;0.016;2022-12-22T07:08:16;8.60;99.90
25360;DHT22;13311;51.386;0.016;2022-12-22T07:13:16;8.50;99.90
25360;DHT22;13311;51.386;0.016;2022-12-22T07:18:20;8.40;99.90
25360;DHT22;13311;51.386;0.016;2022-12-22T07:23:21;8.30;99.90
25360;DHT22;13311;51.386;0.016;2022-12-22T07:28:22;8.30;99.90
25360;DHT22;13311;51.386;0.016;2022-12-22T07:33:23;8.20;99.90
25360;DHT22;13311;51.386;0.016;2022-12-22T07:38:23;8.20;99.90
25360;DHT22;13311;51.386;0.016;2022-12-22T07:43:24;8.20;99.90
25360;DHT22;13311;51.386;0.016;2022-12-22T07:48:25;8.20;99.90
25360;DHT22;13311;51.386;0.016;2022-12-22T07:53:44;8.20;99.90
25360;DHT22;13311;51.386;0.016;2022-12-22T07:58:45;8.30;99.90
25360;DHT22;13311;51.386;0.016;2022-12-22T08:03:45;8.40;99.90
25360;DHT22;13311;51.386;0.016;2022-12-22T08:08:46;8.40;99.90
25360;DHT22;13311;51.386;0.016;2022-12-22T08:13:47;8.50;99.90
25360;DHT22;13311;51.386;0.016;2022-12-22T08:18:49;8.60;99.90
25360;DHT22;13311;51.386;0.016;2022-12-22T08:23:50;8.70;99.90
25360;DHT22;13311;51.386;0.016;2022-12-22T08:29:11;8.90;99.90
25360;DHT22;13311;51.386;0.016;2022-12-22T08:34:15;9.10;99.90
25360;DHT22;13311;51.386;0.016;2022-12-22T08:39:17;9.30;99.90
25360;DHT22;13311;51.386;0.016;2022-12-22T08:44:23;9.40;99.90
25360;DHT22;13311;51.386;0.016;2022-12-22T08:49:27;9.60;99.90
25360;DHT22;13311;51.386;0.016;2022-12-22T08:54:28;9.70;99.90
25360;DHT22;13311;51.386;0.016;2022-12-22T08:59:29;9.80;99.90
25360;DHT22;13311;51.386;0.016;2022-12-22T09:04:31;9.90;99.90
25360;DHT22;13311;51.386;0.016;2022-12-22T09:09:33;10.00;99.90
25360;DHT22;13311;51.386;0.016;2022-12-22T09:14:34;10.20;99.90
25360;DHT22;13311;51.386;0.016;2022-12-22T09:19:34;10.30;99.90
25360;DHT22;13311;51.386;0.016;2022-12-22T09:24:40;10.40;99.90
25360;DHT22;13311;51.386;0.016;2022-12-22T09:29:40;10.40;99.90
25360;DHT22;13311;51.386;0.016;2022-12-22T09:34:41;10.50;99.90
25360;DHT22;13311;51.386;0.016;2022-12-22T09:39:44;10.50;99.90
25360;DHT22;13311;51.386;0.016;2022-12-22T09:44:47;10.50;99.90
25360;DHT22;13311;51.386;0.016;2022-12-22T09:49:50;10.60;99.90
25360;DHT22;13311;51.386;0.016;2022-12-22T09:54:54;10.70;99.90
25360;DHT22;13311;51.386;0.016;2022-12-22T10:00:12;10.70;99.90
25360;DHT22;13311;51.386;0.016;2022-12-22T10:05:34;10.80;99.90
25360;DHT22;13311;51.386;0.016;2022-12-22T10:10:39;10.90;99.90
25360;DHT22;13311;51.386;0.016;2022-12-22T10:15:41;11.00;99.90
25360;DHT22;13311;51.386;0.016;2022-12-22T10:20:45;11.10;99.90
25360;DHT22;13311;51.386;0.016;2022-12-22T10:26:09;11.30;99.90
25360;DHT22;13311;51.386;0.016;2022-12-22T10:31:19;11.40;99.90
25360;DHT22;13311;51.386;0.016;2022-12-22T10:36:29;11.50;99.90
25360;DHT22;13311;51.386;0.016;2022-12-22T10:41:34;11.60;99.90
25360;DHT22;13311;51.386;0.016;2022-12-22T10:47:27;11.70;99.90
25360;DHT22;13311;51.386;0.016;2022-12-22T10:52:20;11.80;99.90
25360;DHT22;13311;51.386;0.016;2022-12-22T10:57:27;12.10;99.90
25360;DHT22;13311;51.386;0.016;2022-12-22T11:02:34;12.20;99.90
25360;DHT22;13311;51.386;0.016;2022-12-22T11:07:41;12.30;99.90
25360;DHT22;13311;51.386;0.016;2022-12-22T11:13:09;12.40;99.90
25360;DHT22;13311;51.386;0.016;2022-12-22T11:18:46;12.50;99.90
25360;DHT22;13311;51.386;0.016;2022-12-22T11:24:29;12.70;99.90
25360;DHT22;13311;51.386;0.016;2022-12-22T11:30:11;12.80;99.90
25360;DHT22;13311;51.386;0.016;2022-12-22T11:40:46;12.90;99.90
25360;DHT22;13311;51.386;0.016;2022-12-22T11:57:20;13.30;99.90
25360;DHT22;13311;51.386;0.016;2022-12-22T12:08:09;13.30;99.90
25360;DHT22;13311;51.386;0.016;2022-12-22T12:24:49;13.40;99.90
25360;DHT22;13311;51.386;0.016;2022-12-22T12:40:39;13.50;99.90
25360;DHT22;13311;51.386;0.016;2022-12-22T12:45:47;13.40;99.90
25360;DHT22;13311;51.386;0.016;2022-12-22T12:50:50;13.50;99.90
25360;DHT22;13311;51.386;0.016;2022-12-22T13:00:52;13.70;99.90
25360;DHT22;13311;51.386;0.016;2022-12-22T13:05:55;13.70;99.90
25360;DHT22;13311;51.386;0.016;2022-12-22T13:21:15;13.80;99.90
25360;DHT22;13311;51.386;0.016;2022-12-22T13:36:44;13.90;99.90
25360;DHT22;13311;51.386;0.016;2022-12-22T13:41:47;13.80;99.90
25360;DHT22;13311;51.386;0.016;2022-12-22T13:46:49;13.90;99.90
25360;DHT22;13311;51.386;0.016;2022-12-22T13:51:50;13.80;99.90
25360;DHT22;13311;51.386;0.016;2022-12-22T13:56:53;13.90;99.90
25360;DHT22;13311;51.386;0.016;2022-12-22T14:02:17;13.90;99.90
25360;DHT22;13311;51.386;0.016;2022-12-22T14:07:19;13.90;99.90
25360;DHT22;13311;51.386;0.016;2022-12-22T14:12:31;13.90;99.90
25360;DHT22;13311;51.386;0.016;2022-12-22T14:17:37;13.80;99.90
25360;DHT22;13311;51.386;0.016;2022-12-22T14:22:43;13.70;99.90
25360;DHT22;13311;51.386;0.016;2022-12-22T14:27:51;13.80;99.90
25360;DHT22;13311;51.386;0.016;2022-12-22T14:32:54;13.80;99.90
25360;DHT22;13311;51.386;0.016;2022-12-22T14:38:16;13.80;99.90
25360;DHT22;13311;51.386;0.016;2022-12-22T14:48:30;13.60;99.90
25360;DHT22;13311;51.386;0.016;2022-12-22T14:53:42;13.60;99.90
25360;DHT22;13311;51.386;0.016;2022-12-22T14:58:48;13.70;99.90
25360;DHT22;13311;51.386;0.016;2022-12-22T15:04:07;13.70;99.90
25360;DHT22;13311;51.386;0.016;2022-12-22T15:14:23;13.70;99.90
25360;DHT22;13311;51.386;0.016;2022-12-22T15:19:36;13.80;99.90
25360;DHT22;13311;51.386;0.016;2022-12-22T15:24:37;13.80;99.90
25360;DHT22;13311;51.386;0.016;2022-12-22T15:29:38;13.80;99.90
25360;DHT22;13311;51.386;0.016;2022-12-22T15:34:39;13.80;99.90
25360;DHT22;13311;51.386;0.016;2022-12-22T15:39:39;13.80;99.90
25360;DHT22;13311;51.386;0.016;2022-12-22T15:44:40;13.70;99.90
25360;DHT22;13311;51.386;0.016;2022-12-22T15:49:41;13.80;99.90
25360;DHT22;13311;51.386;0.016;2022-12-22T15:54:42;13.80;99.90
25360;DHT22;13311;51.386;0.016;2022-12-22T15:59:42;13.80;99.90
25360;DHT22;13311;51.386;0.016;2022-12-22T16:04:43;13.70;99.90
25360;DHT22;13311;51.386;0.016;2022-12-22T16:09:45;13.70;99.90
25360;DHT22;13311;51.386;0.016;2022-12-22T16:14:51;13.60;99.90
25360;DHT22;13311;51.386;0.016;2022-12-22T16:19:54;13.60;99.90
25360;DHT22;13311;51.386;0.016;2022-12-22T16:24:54;13.70;99.90
25360;DHT22;13311;51.386;0.016;2022-12-22T16:29:56;13.70;99.90
25360;DHT22;13311;51.386;0.016;2022-12-22T16:35:12;13.60;99.90
25360;DHT22;13311;51.386;0.016;2022-12-22T16:40:17;13.60;99.90
25360;DHT22;13311;51.386;0.016;2022-12-22T16:45:21;13.70;99.90
25360;DHT22;13311;51.386;0.016;2022-12-22T16:50:26;13.70;99.90
25360;DHT22;13311;51.386;0.016;2022-12-22T16:55:32;13.70;99.90
25360;DHT22;13311;51.386;0.016;2022-12-22T17:00:36;13.70;99.90
25360;DHT22;13311;51.386;0.016;2022-12-22T17:05:52;13.70;99.90
25360;DHT22;13311;51.386;0.016;2022-12-22T17:10:57;13.80;99.90
25360;DHT22;13311;51.386;0.016;2022-12-22T17:15:59;13.70;99.90
25360;DHT22;13311;51.386;0.016;2022-12-22T17:21:01;13.80;99.90
25360;DHT22;13311;51.386;0.016;2022-12-22T17:26:08;13.80;99.90
25360;DHT22;13311;51.386;0.016;2022-12-22T17:31:15;13.70;99.90
25360;DHT22;13311;51.386;0.016;2022-12-22T17:36:35;13.80;99.90
25360;DHT22;13311;51.386;0.016;2022-12-22T17:41:36;13.80;99.90
25360;DHT22;13311;51.386;0.016;2022-12-22T17:46:37;13.70;99.90
25360;DHT22;13311;51.386;0.016;2022-12-22T17:51:39;13.70;99.90
25360;DHT22;13311;51.386;0.016;2022-12-22T17:56:41;13.70;99.90
25360;DHT22;13311;51.386;0.016;2022-12-22T18:01:44;13.70;99.90
25360;DHT22;13311;51.386;0.016;2022-12-22T18:06:45;13.70;99.90
25360;DHT22;13311;51.386;0.016;2022-12-22T18:11:47;13.70;99.90
25360;DHT22;13311;51.386;0.016;2022-12-22T18:16:48;13.80;99.90
25360;DHT22;13311;51.386;0.016;2022-12-22T18:21:49;13.80;99.90
25360;DHT22;13311;51.386;0.016;2022-12-22T18:26:49;13.80;99.90
25360;DHT22;13311;51.386;0.016;2022-12-22T18:31:50;13.80;99.90
25360;DHT22;13311;51.386;0.016;2022-12-22T18:36:51;13.80;99.90
25360;DHT22;13311;51.386;0.016;2022-12-22T18:41:51;13.80;99.90
25360;DHT22;13311;51.386;0.016;2022-12-22T18:46:53;13.90;99.90
25360;DHT22;13311;51.386;0.016;2022-12-22T18:51:54;14.00;99.90
25360;DHT22;13311;51.386;0.016;2022-12-22T18:56:54;14.00;99.90
25360;DHT22;13311;51.386;0.016;2022-12-22T19:02:01;14.00;99.90
25360;DHT22;13311;51.386;0.016;2022-12-22T19:07:14;14.10;99.90
25360;DHT22;13311;51.386;0.016;2022-12-22T19:12:19;14.10;99.90
25360;DHT22;13311;51.386;0.016;2022-12-22T19:17:26;14.10;99.90
25360;DHT22;13311;51.386;0.016;2022-12-22T19:22:27;14.00;99.90
25360;DHT22;13311;51.386;0.016;2022-12-22T19:27:28;13.90;99.90
25360;DHT22;13311;51.386;0.016;2022-12-22T19:32:36;13.80;99.90
25360;DHT22;13311;51.386;0.016;2022-12-22T19:37:40;13.80;99.90
25360;DHT22;13311;51.386;0.016;2022-12-22T19:42:43;13.90;99.90
25360;DHT22;13311;51.386;0.016;2022-12-22T19:47:45;14.00;99.90
25360;DHT22;13311;51.386;0.016;2022-12-22T19:52:46;14.00;99.90
25360;DHT22;13311;51.386;0.016;2022-12-22T19:57:49;14.10;99.90
25360;DHT22;13311;51.386;0.016;2022-12-22T20:02:54;14.20;99.90
25360;DHT22;13311;51.386;0.016;2022-12-22T20:07:58;14.00;99.90
25360;DHT22;13311;51.386;0.016;2022-12-22T20:13:12;14.20;99.90
25360;DHT22;13311;51.386;0.016;2022-12-22T20:18:23;14.20;99.90
25360;DHT22;13311;51.386;0.016;2022-12-22T20:23:28;14.10;99.90
25360;DHT22;13311;51.386;0.016;2022-12-22T20:28:33;14.10;99.90
25360;DHT22;13311;51.386;0.016;2022-12-22T20:33:35;14.10;99.90
25360;DHT22;13311;51.386;0.016;2022-12-22T20:38:40;14.10;99.90
25360;DHT22;13311;51.386;0.016;2022-12-22T20:43:41;14.10;99.90
25360;DHT22;13311;51.386;0.016;2022-12-22T20:48:57;14.10;99.90
25360;DHT22;13311;51.386;0.016;2022-12-22T20:53:59;14.10;99.90
25360;DHT22;13311;51.386;0.016;2022-12-22T20:59:17;14.10;99.90
25360;DHT22;13311;51.386;0.016;2022-12-22T21:04:20;14.10;99.90
25360;DHT22;13311;51.386;0.016;2022-12-22T21:09:22;14.00;99.90
25360;DHT22;13311;51.386;0.016;2022-12-22T21:14:23;14.10;99.90
25360;DHT22;13311;51.386;0.016;2022-12-22T21:19:24;14.20;99.90
25360;DHT22;13311;51.386;0.016;2022-12-22T21:24:24;14.10;99.90
25360;DHT22;13311;51.386;0.016;2022-12-22T21:29:26;14.10;99.90
25360;DHT22;13311;51.386;0.016;2022-12-22T21:34:27;14.00;99.90
25360;DHT22;13311;51.386;0.016;2022-12-22T21:39:31;14.10;99.90
25360;DHT22;13311;51.386;0.016;2022-12-22T21:44:44;14.00;99.90
25360;DHT22;13311;51.386;0.016;2022-12-22T21:49:45;14.10;99.90
25360;DHT22;13311;51.386;0.016;2022-12-22T21:54:46;14.10;99.90
25360;DHT22;13311;51.386;0.016;2022-12-22T21:59:47;14.10;99.90
25360;DHT22;13311;51.386;0.016;2022-12-22T22:04:48;14.10;99.90
25360;DHT22;13311;51.386;0.016;2022-12-22T22:09:48;14.10;99.90
25360;DHT22;13311;51.386;0.016;2022-12-22T22:14:49;14.20;99.90
25360;DHT22;13311;51.386;0.016;2022-12-22T22:19:50;14.20;99.90
25360;DHT22;13311;51.386;0.016;2022-12-22T22:24:50;14.10;99.90
25360;DHT22;13311;51.386;0.016;2022-12-22T22:29:51;14.00;99.90
25360;DHT22;13311;51.386;0.016;2022-12-22T22:34:52;14.00;99.90
25360;DHT22;13311;51.386;0.016;2022-12-22T22:39:52;14.10;99.90
25360;DHT22;13311;51.386;0.016;2022-12-22T22:44:53;14.10;99.90
25360;DHT22;13311;51.386;0.016;2022-12-22T22:49:54;14.10;99.90
25360;DHT22;13311;51.386;0.016;2022-12-22T22:54:57;14.00;99.90
25360;DHT22;13311;51.386;0.016;2022-12-22T22:59:58;14.10;99.90
25360;DHT22;13311;51.386;0.016;2022-12-22T23:04:59;14.10;99.90
25360;DHT22;13311;51.386;0.016;2022-12-22T23:09:59;14.10;99.90
25360;DHT22;13311;51.386;0.016;2022-12-22T23:15:00;14.00;99.90
25360;DHT22;13311;51.386;0.016;2022-12-22T23:20:01;14.00;99.90
25360;DHT22;13311;51.386;0.016;2022-12-22T23:25:02;14.00;99.90
25360;DHT22;13311;51.386;0.016;2022-12-22T23:30:04;14.00;99.90
25360;DHT22;13311;51.386;0.016;2022-12-22T23:35:06;13.90;99.90
25360;DHT22;13311;51.386;0.016;2022-12-22T23:40:07;14.00;99.90
25360;DHT22;13311;51.386;0.016;2022-12-22T23:45:08;14.00;99.90
25360;DHT22;13311;51.386;0.016;2022-12-22T23:50:09;14.10;99.90
25360;DHT22;13311;51.386;0.016;2022-12-22T23:55:10;14.10;99.90
